Swissvale, Pennsylvania
Current Conditions -  °F | °C
As of 9:53 AM on Monday 24 Nov 2014 (Local Time) from KAGC Reporting Station
Broken Clouds Broken Clouds  
Wind Chill: 65°   Ceiling: 6000
Heat Index: 65°   Visibility: 10mi
Dew Point: 47°   Wind: 17mph
Humidity: 52%   Direction: 190°S
Pressure: 29.44"   Gusts: 32mph
Location:  40.42°N, 79.88°W
Report Text: KAGC 241453Z 19015G28KT 10SM SCT047 BKN060 18/08 A2944 RMK AO2 PK WND 20028/1445 SLP970 T01830083 58005
Loading
Personal Weather Stations






























Interactive Weather Map New forecast layout! Learn more

10-Day Weather Forecast

Advertisements
Track Severe Weather on mobile